Sharon, Wisconsin
Current Conditions -  °F | °C
As of 2:45 PM on Sunday 23 Nov 2014 (Local Time) from KJVL Reporting Station
Light Rain Light Rain  
Wind Chill: 50°   Ceiling: 600
Heat Index: 50°   Visibility: 3mi
Dew Point: 48°   Wind: 10mph
Humidity: 94%   Direction: 150°SSE
Pressure: 29.45"   Gusts: NA
Location:  42.5°N, 88.73°W
Report Text: KJVL 232045Z 15009KT 3SM -RABR OVC006 10/09 A2945
Loading
Personal Weather Stations






























Interactive Weather Map New forecast layout! Learn more

10-Day Weather Forecast

Advertisements
Track Severe Weather on mobile